sensor_id;sensor_type;location;lat;lon;timestamp;pressure;altitude;pressure_sealevel;temperature;humidity
23321;BME280;33376;51.306;4.752;2023-05-02T00:00:35;102017.09;;;11.32;nan
23321;BME280;33376;51.306;4.752;2023-05-02T00:03:01;102007.88;;;11.41;nan
23321;BME280;33376;51.306;4.752;2023-05-02T00:05:26;102019.44;;;11.40;nan
23321;BME280;33376;51.306;4.752;2023-05-02T00:07:52;102011.41;;;11.41;nan
23321;BME280;33376;51.306;4.752;2023-05-02T00:10:17;102016.47;;;11.26;nan
23321;BME280;33376;51.306;4.752;2023-05-02T00:12:42;102019.25;;;11.23;nan
23321;BME280;33376;51.306;4.752;2023-05-02T00:15:08;102017.56;;;11.20;nan
23321;BME280;33376;51.306;4.752;2023-05-02T00:17:34;102021.97;;;11.21;nan
23321;BME280;33376;51.306;4.752;2023-05-02T00:20:00;102018.13;;;11.28;nan
23321;BME280;33376;51.306;4.752;2023-05-02T00:22:25;102010.97;;;11.30;nan
23321;BME280;33376;51.306;4.752;2023-05-02T00:24:54;102009.25;;;11.29;nan
23321;BME280;33376;51.306;4.752;2023-05-02T00:27:20;102010.09;;;11.30;nan
23321;BME280;33376;51.306;4.752;2023-05-02T00:29:45;102012.84;;;11.05;nan
23321;BME280;33376;51.306;4.752;2023-05-02T00:32:11;102011.69;;;11.12;nan
23321;BME280;33376;51.306;4.752;2023-05-02T00:34:37;102006.44;;;11.11;nan
23321;BME280;33376;51.306;4.752;2023-05-02T00:37:02;102012.34;;;10.96;nan
23321;BME280;33376;51.306;4.752;2023-05-02T00:39:27;102015.53;;;10.81;nan
23321;BME280;33376;51.306;4.752;2023-05-02T00:41:56;102016.97;;;10.66;nan
23321;BME280;33376;51.306;4.752;2023-05-02T00:44:22;102018.59;;;10.70;nan
23321;BME280;33376;51.306;4.752;2023-05-02T00:46:47;102021.50;;;10.63;nan
23321;BME280;33376;51.306;4.752;2023-05-02T00:49:12;102024.41;;;10.57;nan
23321;BME280;33376;51.306;4.752;2023-05-02T00:51:38;102028.38;;;10.44;nan
23321;BME280;33376;51.306;4.752;2023-05-02T00:54:04;102037.22;;;10.44;nan
23321;BME280;33376;51.306;4.752;2023-05-02T00:56:29;102042.75;;;10.38;nan
23321;BME280;33376;51.306;4.752;2023-05-02T00:58:55;102042.91;;;10.33;nan
23321;BME280;33376;51.306;4.752;2023-05-02T01:12:01;102033.69;;;10.68;nan
23321;BME280;33376;51.306;4.752;2023-05-02T01:14:33;102036.28;;;10.70;nan
23321;BME280;33376;51.306;4.752;2023-05-02T01:17:03;102025.09;;;10.62;nan
23321;BME280;33376;51.306;4.752;2023-05-02T01:19:36;102023.69;;;10.52;nan
23321;BME280;33376;51.306;4.752;2023-05-02T01:22:04;102020.56;;;10.41;nan
23321;BME280;33376;51.306;4.752;2023-05-02T01:27:17;102011.81;;;10.39;nan
23321;BME280;33376;51.306;4.752;2023-05-02T01:29:47;102008.34;;;10.37;nan
23321;BME280;33376;51.306;4.752;2023-05-02T01:32:14;102002.44;;;10.28;nan
23321;BME280;33376;51.306;4.752;2023-05-02T01:34:40;102001.66;;;10.25;nan
23321;BME280;33376;51.306;4.752;2023-05-02T01:37:07;101999.84;;;10.27;nan
23321;BME280;33376;51.306;4.752;2023-05-02T01:39:34;101986.59;;;10.27;nan
23321;BME280;33376;51.306;4.752;2023-05-02T01:42:02;101975.44;;;10.17;nan
23321;BME280;33376;51.306;4.752;2023-05-02T01:44:29;101981.97;;;10.07;nan
23321;BME280;33376;51.306;4.752;2023-05-02T01:46:55;101982.09;;;10.03;nan
23321;BME280;33376;51.306;4.752;2023-05-02T01:49:21;101979.97;;;9.88;nan
23321;BME280;33376;51.306;4.752;2023-05-02T01:51:47;101986.59;;;9.75;nan
23321;BME280;33376;51.306;4.752;2023-05-02T01:54:13;101987.88;;;9.63;nan
23321;BME280;33376;51.306;4.752;2023-05-02T01:56:40;101984.41;;;9.61;nan
23321;BME280;33376;51.306;4.752;2023-05-02T01:59:13;101987.31;;;9.54;nan
23321;BME280;33376;51.306;4.752;2023-05-02T02:01:39;101992.97;;;9.42;nan
23321;BME280;33376;51.306;4.752;2023-05-02T02:04:05;102002.03;;;9.35;nan
23321;BME280;33376;51.306;4.752;2023-05-02T02:06:31;102011.69;;;9.36;nan
23321;BME280;33376;51.306;4.752;2023-05-02T02:08:56;102017.97;;;9.33;nan
23321;BME280;33376;51.306;4.752;2023-05-02T02:11:35;102019.63;;;9.36;nan
23321;BME280;33376;51.306;4.752;2023-05-02T02:14:05;102018.66;;;9.38;nan
23321;BME280;33376;51.306;4.752;2023-05-02T02:16:32;102036.34;;;9.38;nan
23321;BME280;33376;51.306;4.752;2023-05-02T02:18:58;102039.09;;;9.35;nan
23321;BME280;33376;51.306;4.752;2023-05-02T02:21:26;102036.59;;;9.29;nan
23321;BME280;33376;51.306;4.752;2023-05-02T02:23:53;102043.69;;;9.28;nan
23321;BME280;33376;51.306;4.752;2023-05-02T02:26:21;102036.44;;;9.35;nan
23321;BME280;33376;51.306;4.752;2023-05-02T02:28:47;102052.03;;;9.44;nan
23321;BME280;33376;51.306;4.752;2023-05-02T02:31:13;102032.78;;;9.66;nan
23321;BME280;33376;51.306;4.752;2023-05-02T02:33:38;102040.47;;;9.74;nan
23321;BME280;33376;51.306;4.752;2023-05-02T02:36:09;102047.00;;;9.90;nan
23321;BME280;33376;51.306;4.752;2023-05-02T02:41:21;102048.13;;;10.10;nan
23321;BME280;33376;51.306;4.752;2023-05-02T02:48:43;102042.47;;;10.21;nan
23321;BME280;33376;51.306;4.752;2023-05-02T02:51:13;102045.13;;;10.21;nan
23321;BME280;33376;51.306;4.752;2023-05-02T02:56:19;102033.47;;;10.25;nan
23321;BME280;33376;51.306;4.752;2023-05-02T02:59:05;102033.47;;;10.25;nan
23321;BME280;33376;51.306;4.752;2023-05-02T03:01:34;102023.31;;;10.38;nan
23321;BME280;33376;51.306;4.752;2023-05-02T03:04:00;102019.91;;;10.34;nan
23321;BME280;33376;51.306;4.752;2023-05-02T03:06:27;102015.09;;;10.45;nan
23321;BME280;33376;51.306;4.752;2023-05-02T03:08:53;102012.66;;;10.39;nan
23321;BME280;33376;51.306;4.752;2023-05-02T03:11:18;102011.81;;;10.39;nan
23321;BME280;33376;51.306;4.752;2023-05-02T03:13:43;102008.22;;;10.40;nan
23321;BME280;33376;51.306;4.752;2023-05-02T03:18:40;102016.09;;;10.16;nan
23321;BME280;33376;51.306;4.752;2023-05-02T03:21:05;102019.84;;;10.11;nan
23321;BME280;33376;51.306;4.752;2023-05-02T03:23:30;102020.97;;;10.02;nan
23321;BME280;33376;51.306;4.752;2023-05-02T03:25:56;102022.16;;;9.94;nan
23321;BME280;33376;51.306;4.752;2023-05-02T03:28:21;102019.47;;;9.95;nan
23321;BME280;33376;51.306;4.752;2023-05-02T03:30:47;102024.00;;;9.92;nan
23321;BME280;33376;51.306;4.752;2023-05-02T03:33:12;102024.75;;;9.95;nan
23321;BME280;33376;51.306;4.752;2023-05-02T03:35:38;102035.41;;;9.94;nan
23321;BME280;33376;51.306;4.752;2023-05-02T03:38:06;102032.00;;;9.90;nan
23321;BME280;33376;51.306;4.752;2023-05-02T03:40:32;102033.75;;;9.90;nan
23321;BME280;33376;51.306;4.752;2023-05-02T03:42:57;102042.88;;;9.81;nan
23321;BME280;33376;51.306;4.752;2023-05-02T03:45:23;102045.63;;;9.78;nan
23321;BME280;33376;51.306;4.752;2023-05-02T03:47:48;102058.28;;;9.69;nan
23321;BME280;33376;51.306;4.752;2023-05-02T03:50:17;102051.00;;;9.75;nan
23321;BME280;33376;51.306;4.752;2023-05-02T03:52:42;102054.59;;;9.74;nan
23321;BME280;33376;51.306;4.752;2023-05-02T03:55:07;102058.75;;;9.81;nan
23321;BME280;33376;51.306;4.752;2023-05-02T03:57:33;102062.91;;;9.90;nan
23321;BME280;33376;51.306;4.752;2023-05-02T03:59:58;102065.41;;;9.94;nan
23321;BME280;33376;51.306;4.752;2023-05-02T04:02:24;102063.56;;;9.96;nan
23321;BME280;33376;51.306;4.752;2023-05-02T04:04:50;102065.19;;;10.02;nan
23321;BME280;33376;51.306;4.752;2023-05-02T04:07:16;102056.88;;;10.12;nan
23321;BME280;33376;51.306;4.752;2023-05-02T04:09:45;102053.97;;;10.20;nan
23321;BME280;33376;51.306;4.752;2023-05-02T04:12:14;102051.09;;;10.26;nan
23321;BME280;33376;51.306;4.752;2023-05-02T04:14:41;102049.00;;;10.35;nan
23321;BME280;33376;51.306;4.752;2023-05-02T04:17:07;102059.47;;;10.40;nan
23321;BME280;33376;51.306;4.752;2023-05-02T04:19:32;102051.59;;;10.39;nan
23321;BME280;33376;51.306;4.752;2023-05-02T04:21:58;102055.13;;;10.38;nan
23321;BME280;33376;51.306;4.752;2023-05-02T04:24:23;102065.78;;;10.36;nan
23321;BME280;33376;51.306;4.752;2023-05-02T04:26:48;102060.44;;;10.38;nan
23321;BME280;33376;51.306;4.752;2023-05-02T04:29:14;102060.56;;;10.59;nan
23321;BME280;33376;51.306;4.752;2023-05-02T04:31:39;102057.25;;;10.53;nan
23321;BME280;33376;51.306;4.752;2023-05-02T04:34:05;102054.72;;;10.50;nan
23321;BME280;33376;51.306;4.752;2023-05-02T04:36:30;102066.16;;;10.50;nan
23321;BME280;33376;51.306;4.752;2023-05-02T04:38:56;102066.88;;;10.55;nan
23321;BME280;33376;51.306;4.752;2023-05-02T04:41:21;102066.66;;;10.61;nan
23321;BME280;33376;51.306;4.752;2023-05-02T04:43:47;102071.19;;;10.59;nan
23321;BME280;33376;51.306;4.752;2023-05-02T04:46:12;102069.13;;;10.67;nan
23321;BME280;33376;51.306;4.752;2023-05-02T04:48:40;102073.88;;;10.58;nan
23321;BME280;33376;51.306;4.752;2023-05-02T04:51:06;102074.78;;;10.57;nan
23321;BME280;33376;51.306;4.752;2023-05-02T04:53:31;102079.13;;;10.59;nan
23321;BME280;33376;51.306;4.752;2023-05-02T04:55:57;102072.91;;;10.60;nan
23321;BME280;33376;51.306;4.752;2023-05-02T04:58:22;102081.00;;;10.56;nan
23321;BME280;33376;51.306;4.752;2023-05-02T05:00:48;102096.94;;;10.56;nan
23321;BME280;33376;51.306;4.752;2023-05-02T05:03:13;102101.53;;;10.51;nan
23321;BME280;33376;51.306;4.752;2023-05-02T05:05:38;102109.47;;;10.51;nan
23321;BME280;33376;51.306;4.752;2023-05-02T05:08:03;102128.75;;;10.56;nan
23321;BME280;33376;51.306;4.752;2023-05-02T05:10:29;102145.16;;;10.41;nan
23321;BME280;33376;51.306;4.752;2023-05-02T05:12:54;102154.78;;;10.45;nan
23321;BME280;33376;51.306;4.752;2023-05-02T05:15:19;102156.66;;;10.41;nan
23321;BME280;33376;51.306;4.752;2023-05-02T05:17:47;102177.81;;;10.43;nan
23321;BME280;33376;51.306;4.752;2023-05-02T05:20:13;102206.50;;;10.30;nan
23321;BME280;33376;51.306;4.752;2023-05-02T05:22:39;102228.50;;;10.33;nan
23321;BME280;33376;51.306;4.752;2023-05-02T05:25:05;102256.03;;;10.28;nan
23321;BME280;33376;51.306;4.752;2023-05-02T05:27:30;102282.69;;;10.23;nan
23321;BME280;33376;51.306;4.752;2023-05-02T05:29:57;102292.38;;;10.24;nan
23321;BME280;33376;51.306;4.752;2023-05-02T05:32:23;102300.34;;;10.24;nan
23321;BME280;33376;51.306;4.752;2023-05-02T05:34:51;102315.16;;;10.31;nan
23321;BME280;33376;51.306;4.752;2023-05-02T05:37:17;102330.13;;;10.32;nan
23321;BME280;33376;51.306;4.752;2023-05-02T05:39:42;102353.75;;;10.42;nan
23321;BME280;33376;51.306;4.752;2023-05-02T05:42:08;102369.22;;;10.55;nan
23321;BME280;33376;51.306;4.752;2023-05-02T05:44:34;102383.03;;;10.66;nan
23321;BME280;33376;51.306;4.752;2023-05-02T05:46:59;102397.19;;;10.94;nan
23321;BME280;33376;51.306;4.752;2023-05-02T05:49:24;102418.91;;;11.07;nan
23321;BME280;33376;51.306;4.752;2023-05-02T05:51:50;102427.69;;;11.09;nan
23321;BME280;33376;51.306;4.752;2023-05-02T05:54:15;102451.75;;;11.03;nan
23321;BME280;33376;51.306;4.752;2023-05-02T05:56:41;102464.50;;;11.19;nan
23321;BME280;33376;51.306;4.752;2023-05-02T05:59:06;102482.47;;;11.11;nan
23321;BME280;33376;51.306;4.752;2023-05-02T06:01:31;102485.28;;;11.07;nan
23321;BME280;33376;51.306;4.752;2023-05-02T06:04:00;102496.78;;;11.07;nan
23321;BME280;33376;51.306;4.752;2023-05-02T06:06:27;102497.25;;;11.20;nan
23321;BME280;33376;51.306;4.752;2023-05-02T06:08:52;102508.88;;;11.16;nan
23321;BME280;33376;51.306;4.752;2023-05-02T06:11:17;102516.75;;;11.19;nan
23321;BME280;33376;51.306;4.752;2023-05-02T06:13:43;102522.72;;;11.25;nan
23321;BME280;33376;51.306;4.752;2023-05-02T06:16:18;102531.94;;;11.14;nan
23321;BME280;33376;51.306;4.752;2023-05-02T06:18:43;102530.59;;;11.28;nan
23321;BME280;33376;51.306;4.752;2023-05-02T06:21:09;102540.28;;;11.31;nan
23321;BME280;33376;51.306;4.752;2023-05-02T06:23:34;102550.50;;;11.72;nan
23321;BME280;33376;51.306;4.752;2023-05-02T06:25:59;102568.41;;;11.93;nan
23321;BME280;33376;51.306;4.752;2023-05-02T06:28:25;102580.47;;;12.03;nan
23321;BME280;33376;51.306;4.752;2023-05-02T06:31:00;102581.28;;;12.31;nan
23321;BME280;33376;51.306;4.752;2023-05-02T06:33:29;102587.41;;;12.84;nan
23321;BME280;33376;51.306;4.752;2023-05-02T06:35:54;102579.00;;;13.19;nan
23321;BME280;33376;51.306;4.752;2023-05-02T06:38:20;102565.38;;;13.50;nan
23321;BME280;33376;51.306;4.752;2023-05-02T06:40:45;102551.09;;;13.29;nan
23321;BME280;33376;51.306;4.752;2023-05-02T06:43:11;102520.59;;;13.79;nan
23321;BME280;33376;51.306;4.752;2023-05-02T06:45:39;102513.41;;;14.63;nan
23321;BME280;33376;51.306;4.752;2023-05-02T06:48:05;102449.91;;;15.44;nan
23321;BME280;33376;51.306;4.752;2023-05-02T06:50:30;102381.44;;;16.25;nan
23321;BME280;33376;51.306;4.752;2023-05-02T06:52:55;102336.47;;;16.32;nan
23321;BME280;33376;51.306;4.752;2023-05-02T06:55:21;102290.19;;;16.92;nan
23321;BME280;33376;51.306;4.752;2023-05-02T06:57:47;102327.63;;;14.95;nan
23321;BME280;33376;51.306;4.752;2023-05-02T07:00:13;102339.16;;;16.32;nan
23321;BME280;33376;51.306;4.752;2023-05-02T07:02:38;102241.31;;;16.73;nan
23321;BME280;33376;51.306;4.752;2023-05-02T07:05:04;102212.91;;;17.14;nan
23321;BME280;33376;51.306;4.752;2023-05-02T07:07:30;102171.22;;;17.24;nan
23321;BME280;33376;51.306;4.752;2023-05-02T07:09:55;102140.94;;;17.22;nan
23321;BME280;33376;51.306;4.752;2023-05-02T07:12:20;102160.84;;;16.45;nan
23321;BME280;33376;51.306;4.752;2023-05-02T07:14:46;102162.47;;;17.06;nan
23321;BME280;33376;51.306;4.752;2023-05-02T07:17:11;102096.78;;;17.84;nan
23321;BME280;33376;51.306;4.752;2023-05-02T07:19:36;101978.44;;;18.90;nan
23321;BME280;33376;51.306;4.752;2023-05-02T07:22:04;101977.84;;;19.10;nan
23321;BME280;33376;51.306;4.752;2023-05-02T07:24:30;101934.09;;;19.08;nan
23321;BME280;33376;51.306;4.752;2023-05-02T07:26:55;101929.13;;;17.89;nan
23321;BME280;33376;51.306;4.752;2023-05-02T07:29:21;102044.25;;;17.53;nan
23321;BME280;33376;51.306;4.752;2023-05-02T07:31:46;102001.31;;;18.06;nan
23321;BME280;33376;51.306;4.752;2023-05-02T07:34:11;101997.28;;;17.60;nan
23321;BME280;33376;51.306;4.752;2023-05-02T07:36:37;101937.09;;;20.45;nan
23321;BME280;33376;51.306;4.752;2023-05-02T07:39:03;101952.88;;;18.59;nan
23321;BME280;33376;51.306;4.752;2023-05-02T07:41:28;101888.94;;;19.01;nan
23321;BME280;33376;51.306;4.752;2023-05-02T07:43:53;102009.44;;;16.69;nan
23321;BME280;33376;51.306;4.752;2023-05-02T07:46:19;102115.78;;;16.67;nan
23321;BME280;33376;51.306;4.752;2023-05-02T07:48:44;102232.25;;;15.31;nan
23321;BME280;33376;51.306;4.752;2023-05-02T07:51:09;102315.41;;;14.72;nan
23321;BME280;33376;51.306;4.752;2023-05-02T07:53:35;102265.47;;;16.09;nan
23321;BME280;33376;51.306;4.752;2023-05-02T07:56:02;102216.69;;;16.35;nan
23321;BME280;33376;51.306;4.752;2023-05-02T07:58:27;102204.72;;;16.87;nan
23321;BME280;33376;51.306;4.752;2023-05-02T08:00:53;102215.47;;;16.56;nan
23321;BME280;33376;51.306;4.752;2023-05-02T08:03:18;102311.69;;;16.28;nan
23321;BME280;33376;51.306;4.752;2023-05-02T08:05:43;102302.97;;;15.42;nan
23321;BME280;33376;51.306;4.752;2023-05-02T08:08:09;102352.56;;;14.77;nan
23321;BME280;33376;51.306;4.752;2023-05-02T08:10:34;102382.59;;;14.63;nan
23321;BME280;33376;51.306;4.752;2023-05-02T08:13:00;102347.66;;;15.22;nan
23321;BME280;33376;51.306;4.752;2023-05-02T08:15:25;102263.41;;;16.14;nan
23321;BME280;33376;51.306;4.752;2023-05-02T08:17:50;102271.69;;;15.44;nan
23321;BME280;33376;51.306;4.752;2023-05-02T08:20:16;102274.47;;;15.58;nan
23321;BME280;33376;51.306;4.752;2023-05-02T08:22:41;102357.88;;;14.95;nan
23321;BME280;33376;51.306;4.752;2023-05-02T08:25:06;102416.16;;;14.30;nan
23321;BME280;33376;51.306;4.752;2023-05-02T08:27:31;102432.63;;;14.39;nan
23321;BME280;33376;51.306;4.752;2023-05-02T08:29:59;102407.84;;;13.97;nan
23321;BME280;33376;51.306;4.752;2023-05-02T08:32:24;102467.44;;;14.16;nan
23321;BME280;33376;51.306;4.752;2023-05-02T08:34:53;102403.22;;;14.78;nan
23321;BME280;33376;51.306;4.752;2023-05-02T08:37:18;102395.22;;;14.59;nan
23321;BME280;33376;51.306;4.752;2023-05-02T08:39:44;102407.53;;;14.43;nan
23321;BME280;33376;51.306;4.752;2023-05-02T08:42:09;102458.03;;;14.08;nan
23321;BME280;33376;51.306;4.752;2023-05-02T08:44:34;102468.38;;;13.95;nan
23321;BME280;33376;51.306;4.752;2023-05-02T08:47:01;102397.22;;;15.27;nan
23321;BME280;33376;51.306;4.752;2023-05-02T08:49:26;102293.56;;;15.68;nan
23321;BME280;33376;51.306;4.752;2023-05-02T08:51:53;102263.75;;;15.43;nan
23321;BME280;33376;51.306;4.752;2023-05-02T08:54:18;102278.19;;;15.39;nan
23321;BME280;33376;51.306;4.752;2023-05-02T08:56:45;102321.44;;;15.47;nan
23321;BME280;33376;51.306;4.752;2023-05-02T08:59:10;102371.47;;;15.26;nan
23321;BME280;33376;51.306;4.752;2023-05-02T09:01:35;102419.09;;;14.81;nan
23321;BME280;33376;51.306;4.752;2023-05-02T09:04:01;102378.97;;;14.64;nan
23321;BME280;33376;51.306;4.752;2023-05-02T09:06:26;102432.09;;;14.70;nan
23321;BME280;33376;51.306;4.752;2023-05-02T09:08:53;102440.31;;;14.47;nan
23321;BME280;33376;51.306;4.752;2023-05-02T09:11:18;102390.72;;;14.60;nan
23321;BME280;33376;51.306;4.752;2023-05-02T09:16:11;102124.41;;;17.58;nan
23321;BME280;33376;51.306;4.752;2023-05-02T09:18:38;102234.00;;;15.49;nan
23321;BME280;33376;51.306;4.752;2023-05-02T09:21:09;102283.22;;;15.62;nan
23321;BME280;33376;51.306;4.752;2023-05-02T09:23:38;102306.00;;;15.69;nan
23321;BME280;33376;51.306;4.752;2023-05-02T09:28:48;102222.63;;;15.61;nan
23321;BME280;33376;51.306;4.752;2023-05-02T09:31:17;102304.84;;;14.88;nan
23321;BME280;33376;51.306;4.752;2023-05-02T09:33:43;102322.31;;;15.47;nan
23321;BME280;33376;51.306;4.752;2023-05-02T09:36:10;102258.19;;;15.95;nan
23321;BME280;33376;51.306;4.752;2023-05-02T09:38:36;102221.31;;;16.00;nan
23321;BME280;33376;51.306;4.752;2023-05-02T09:41:02;102206.34;;;15.65;nan
23321;BME280;33376;51.306;4.752;2023-05-02T09:43:27;102209.78;;;16.00;nan
23321;BME280;33376;51.306;4.752;2023-05-02T09:46:01;102167.97;;;16.44;nan
23321;BME280;33376;51.306;4.752;2023-05-02T09:48:27;102192.50;;;16.97;nan
23321;BME280;33376;51.306;4.752;2023-05-02T09:50:53;102170.72;;;17.17;nan
23321;BME280;33376;51.306;4.752;2023-05-02T09:53:18;102312.78;;;15.42;nan
23321;BME280;33376;51.306;4.752;2023-05-02T09:55:44;102339.50;;;15.42;nan
23321;BME280;33376;51.306;4.752;2023-05-02T09:58:21;102259.09;;;16.27;nan
23321;BME280;33376;51.306;4.752;2023-05-02T10:00:47;102251.19;;;15.26;nan
23321;BME280;33376;51.306;4.752;2023-05-02T10:03:14;102335.88;;;14.90;nan
23321;BME280;33376;51.306;4.752;2023-05-02T10:05:40;102344.78;;;14.53;nan
23321;BME280;33376;51.306;4.752;2023-05-02T10:08:07;102409.28;;;14.82;nan
23321;BME280;33376;51.306;4.752;2023-05-02T10:10:36;102321.59;;;15.44;nan
23321;BME280;33376;51.306;4.752;2023-05-02T10:13:02;102236.03;;;15.44;nan
23321;BME280;33376;51.306;4.752;2023-05-02T10:15:28;102245.78;;;15.62;nan
23321;BME280;33376;51.306;4.752;2023-05-02T10:17:55;102322.31;;;14.95;nan
23321;BME280;33376;51.306;4.752;2023-05-02T10:20:22;102409.28;;;14.82;nan
23321;BME280;33376;51.306;4.752;2023-05-02T10:22:50;102283.75;;;16.17;nan
23321;BME280;33376;51.306;4.752;2023-05-02T10:25:16;102199.69;;;16.52;nan
23321;BME280;33376;51.306;4.752;2023-05-02T10:27:42;102144.50;;;17.22;nan
23321;BME280;33376;51.306;4.752;2023-05-02T10:30:07;102236.81;;;16.11;nan
23321;BME280;33376;51.306;4.752;2023-05-02T10:32:33;102184.50;;;16.21;nan
23321;BME280;33376;51.306;4.752;2023-05-02T10:35:04;102113.31;;;18.04;nan
23321;BME280;33376;51.306;4.752;2023-05-02T10:37:30;102018.09;;;17.57;nan
23321;BME280;33376;51.306;4.752;2023-05-02T10:39:57;101976.94;;;18.73;nan
23321;BME280;33376;51.306;4.752;2023-05-02T10:42:23;101986.00;;;19.21;nan
23321;BME280;33376;51.306;4.752;2023-05-02T10:44:48;101967.31;;;17.53;nan
23321;BME280;33376;51.306;4.752;2023-05-02T10:47:21;101969.84;;;18.08;nan
23321;BME280;33376;51.306;4.752;2023-05-02T10:52:29;102067.06;;;16.60;nan
23321;BME280;33376;51.306;4.752;2023-05-02T10:55:14;102151.81;;;16.91;nan
23321;BME280;33376;51.306;4.752;2023-05-02T10:58:22;102173.47;;;17.02;nan
23321;BME280;33376;51.306;4.752;2023-05-02T11:00:31;102141.69;;;16.21;nan
23321;BME280;33376;51.306;4.752;2023-05-02T11:03:00;102027.41;;;18.04;nan
23321;BME280;33376;51.306;4.752;2023-05-02T11:05:26;101890.94;;;19.46;nan
23321;BME280;33376;51.306;4.752;2023-05-02T11:10:35;102109.72;;;16.18;nan
23321;BME280;33376;51.306;4.752;2023-05-02T11:13:01;102167.19;;;16.42;nan
23321;BME280;33376;51.306;4.752;2023-05-02T11:18:01;102052.53;;;17.77;nan
23321;BME280;33376;51.306;4.752;2023-05-02T11:20:27;101994.13;;;18.83;nan
23321;BME280;33376;51.306;4.752;2023-05-02T11:22:54;102049.59;;;17.94;nan
23321;BME280;33376;51.306;4.752;2023-05-02T11:25:33;102094.47;;;16.79;nan
23321;BME280;33376;51.306;4.752;2023-05-02T11:27:59;102129.34;;;16.64;nan
23321;BME280;33376;51.306;4.752;2023-05-02T11:30:37;102161.25;;;16.53;nan
23321;BME280;33376;51.306;4.752;2023-05-02T11:35:28;102150.53;;;16.82;nan
23321;BME280;33376;51.306;4.752;2023-05-02T11:37:59;102233.72;;;16.95;nan
23321;BME280;33376;51.306;4.752;2023-05-02T11:40:26;102140.16;;;17.06;nan
23321;BME280;33376;51.306;4.752;2023-05-02T11:42:51;102026.34;;;17.80;nan
23321;BME280;33376;51.306;4.752;2023-05-02T11:45:17;102095.78;;;16.72;nan
23321;BME280;33376;51.306;4.752;2023-05-02T11:47:42;102052.00;;;17.98;nan
23321;BME280;33376;51.306;4.752;2023-05-02T11:50:10;101912.09;;;19.27;nan
23321;BME280;33376;51.306;4.752;2023-05-02T11:52:39;101805.19;;;19.30;nan
23321;BME280;33376;51.306;4.752;2023-05-02T11:55:06;101951.06;;;18.08;nan
23321;BME280;33376;51.306;4.752;2023-05-02T11:57:33;102022.38;;;16.47;nan
23321;BME280;33376;51.306;4.752;2023-05-02T11:59:58;102103.94;;;16.26;nan
23321;BME280;33376;51.306;4.752;2023-05-02T12:02:36;102182.81;;;15.72;nan
23321;BME280;33376;51.306;4.752;2023-05-02T12:05:02;102176.41;;;16.83;nan
23321;BME280;33376;51.306;4.752;2023-05-02T12:07:33;101974.78;;;16.94;nan
23321;BME280;33376;51.306;4.752;2023-05-02T12:09:58;101993.00;;;17.97;nan
23321;BME280;33376;51.306;4.752;2023-05-02T12:12:24;101865.56;;;19.14;nan
23321;BME280;33376;51.306;4.752;2023-05-02T12:14:49;101731.56;;;19.77;nan
23321;BME280;33376;51.306;4.752;2023-05-02T12:17:15;101814.19;;;19.53;nan
23321;BME280;33376;51.306;4.752;2023-05-02T12:19:40;101778.09;;;18.73;nan
23321;BME280;33376;51.306;4.752;2023-05-02T12:22:06;101933.09;;;17.84;nan
23321;BME280;33376;51.306;4.752;2023-05-02T12:24:32;101951.72;;;17.99;nan
23321;BME280;33376;51.306;4.752;2023-05-02T12:27:10;102070.94;;;16.70;nan
23321;BME280;33376;51.306;4.752;2023-05-02T12:32:04;102232.78;;;15.54;nan
23321;BME280;33376;51.306;4.752;2023-05-02T12:34:30;102172.94;;;16.05;nan
23321;BME280;33376;51.306;4.752;2023-05-02T12:36:56;102143.63;;;16.33;nan
23321;BME280;33376;51.306;4.752;2023-05-02T12:39:32;102044.88;;;16.72;nan
23321;BME280;33376;51.306;4.752;2023-05-02T12:41:58;102127.53;;;17.08;nan
23321;BME280;33376;51.306;4.752;2023-05-02T12:44:34;101907.47;;;18.05;nan
23321;BME280;33376;51.306;4.752;2023-05-02T12:47:00;102033.59;;;17.66;nan
23321;BME280;33376;51.306;4.752;2023-05-02T12:49:25;102034.31;;;18.98;nan
23321;BME280;33376;51.306;4.752;2023-05-02T12:51:53;102109.16;;;17.30;nan
23321;BME280;33376;51.306;4.752;2023-05-02T12:54:22;102211.00;;;16.41;nan
23321;BME280;33376;51.306;4.752;2023-05-02T12:56:47;102333.00;;;15.29;nan
23321;BME280;33376;51.306;4.752;2023-05-02T12:59:29;102312.31;;;15.68;nan
23321;BME280;33376;51.306;4.752;2023-05-02T13:01:55;102256.31;;;15.31;nan
23321;BME280;33376;51.306;4.752;2023-05-02T13:04:20;102158.22;;;15.65;nan
23321;BME280;33376;51.306;4.752;2023-05-02T13:06:45;102101.59;;;17.08;nan
23321;BME280;33376;51.306;4.752;2023-05-02T13:09:11;101970.66;;;18.35;nan
23321;BME280;33376;51.306;4.752;2023-05-02T13:11:36;101894.16;;;19.51;nan
23321;BME280;33376;51.306;4.752;2023-05-02T13:14:03;102028.22;;;18.19;nan
23321;BME280;33376;51.306;4.752;2023-05-02T13:16:29;102232.16;;;16.77;nan
23321;BME280;33376;51.306;4.752;2023-05-02T13:18:55;102203.38;;;16.18;nan
23321;BME280;33376;51.306;4.752;2023-05-02T13:21:20;102265.91;;;15.84;nan
23321;BME280;33376;51.306;4.752;2023-05-02T13:23:46;102238.09;;;15.39;nan
23321;BME280;33376;51.306;4.752;2023-05-02T13:26:11;102348.31;;;15.44;nan
23321;BME280;33376;51.306;4.752;2023-05-02T13:28:37;102315.13;;;16.30;nan
23321;BME280;33376;51.306;4.752;2023-05-02T13:31:02;102235.00;;;16.27;nan
23321;BME280;33376;51.306;4.752;2023-05-02T13:33:28;102254.47;;;15.98;nan
23321;BME280;33376;51.306;4.752;2023-05-02T13:35:53;102182.81;;;17.24;nan
23321;BME280;33376;51.306;4.752;2023-05-02T13:38:18;102090.28;;;17.03;nan
23321;BME280;33376;51.306;4.752;2023-05-02T13:40:43;102132.47;;;16.56;nan
23321;BME280;33376;51.306;4.752;2023-05-02T13:43:09;102155.06;;;15.90;nan
23321;BME280;33376;51.306;4.752;2023-05-02T13:45:34;102200.13;;;16.29;nan
23321;BME280;33376;51.306;4.752;2023-05-02T13:47:59;102184.22;;;16.41;nan
23321;BME280;33376;51.306;4.752;2023-05-02T13:50:24;102148.22;;;16.47;nan
23321;BME280;33376;51.306;4.752;2023-05-02T13:52:50;102138.03;;;16.83;nan